Garcia Miguel — CUGT9 — position and weather

sailwx.info

Track history (hours):
 
Tides and Currents Weather Stations Pressure Air Temp Water Temp Dewpoint Dewpoint Depression Visibility Wind Speed Wind Dir Waves Ship Positions

Garcia Miguel

Last reported at 2014-Oct-01 18:17 UTC. Time now 2014-Oct-24 12:07 UTC.
Position N 37°49' W 010°06'.
Warning: this ship's position is 22 days out of date.

Length 20 m.

Type: Fishing. MMSI: 263500286.

Date/timePositionNaut miles runAvg speedWind from/ knotsBaromVisibWave heightAir tempDewpointWater temp
2014-Oct-01 18:17N 37°49' W 010°06'5 7.2
2014-Oct-01 17:33N 37°49' W 009°59'7 7.4
2014-Oct-01 16:33N 37°48' W 009°50'7 7.3
2014-Oct-01 15:33N 37°47' W 009°41'7 6.8
2014-Oct-01 14:33N 37°46' W 009°32'6 5.7
2014-Oct-01 13:33N 37°40' W 009°30'5 5.3
2014-Oct-01 12:33N 37°37' W 009°25'5 5.3
2014-Oct-01 11:33N 37°34' W 009°20'4 4.5
2014-Oct-01 10:33N 37°29' W 009°19'5 4.5
2014-Oct-01 09:26N 37°24' W 009°18'4 4.6
2014-Oct-01 08:33N 37°20' W 009°19'5 5.1
2014-Oct-01 07:33N 37°16' W 009°22'5 4.8
2014-Oct-01 06:33N 37°11' W 009°24'4 3.7
2014-Oct-01 05:33N 37°09' W 009°20'3 2.6
2014-Oct-01 04:33N 37°08' W 009°17'1 0.8
2014-Oct-01 03:33N 37°09' W 009°16'1 0.9
2014-Oct-01 02:33N 37°09' W 009°16'1 1.0
2014-Oct-01 01:33N 37°10' W 009°15'1 1.0
2014-Oct-01 00:32N 37°11' W 009°15'5 1.6
2014-Sep-30 21:33N 37°16' W 009°17'8 7.6
2014-Sep-30 20:32N 37°23' W 009°16'7 7.3
2014-Sep-30 19:33N 37°31' W 009°17'6 6.4
2014-Sep-30 18:33N 37°37' W 009°20'7 7.4
2014-Sep-30 17:33N 37°38' W 009°29'7 6.8
2014-Sep-30 16:33N 37°45' W 009°31'8 7.3
2014-Sep-30 15:25N 37°53' W 009°34'4 5.0
2014-Sep-30 14:33N 37°56' W 009°29'6 5.6
2014-Sep-30 13:32N 37°50' W 009°30'4 4.4
2014-Sep-30 12:33N 37°46' W 009°29'7 6.2
2014-Sep-30 11:30N 37°39' W 009°27'4 3.6
2014-Sep-30 10:30N 37°41' W 009°32'5 4.5
2014-Sep-30 09:18N 37°46' W 009°30'4 5.0
2014-Sep-30 08:33N 37°45' W 009°26'5 5.2
2014-Sep-30 07:33N 37°40' W 009°23'11 3.0
2014-Sep-30 04:04N 37°32' W 009°15'1 1.1
2014-Sep-30 03:27N 37°32' W 009°15'1 1.2
2014-Sep-30 02:23N 37°34' W 009°15'1 1.3
2014-Sep-30 01:33N 37°35' W 009°15'1 1.1
2014-Sep-30 00:33N 37°36' W 009°15'2 1.2
2014-Sep-29 23:17N 37°34' W 009°16'4 5.2
2014-Sep-29 22:30N 37°37' W 009°20'7 7.6
2014-Sep-29 21:33N 37°44' W 009°22'7 6.8
2014-Sep-29 20:32N 37°46' W 009°30'6 6.1
2014-Sep-29 19:31N 37°40' W 009°30'3 3.1
2014-Sep-29 18:33N 37°41' W 009°27'7 7.5
2014-Sep-29 17:33N 37°49' W 009°27'7 7.1
2014-Sep-29 16:33N 37°56' W 009°27'7 6.9
2014-Sep-29 15:33N 38°02' W 009°24'7 7.0
2014-Sep-29 14:33N 38°06' W 009°16'6 6.2
2014-Sep-29 13:33N 38°06' W 009°24'5 0.3
2014-Sep-28 17:20N 38°11' W 009°21'2 2.2
2014-Sep-28 16:33N 38°11' W 009°19'2 2.3
2014-Sep-28 15:32N 38°11' W 009°22'5 4.6
2014-Sep-28 14:33N 38°07' W 009°20'5 4.6
2014-Sep-28 13:33N 38°03' W 009°22'5 4.8
2014-Sep-28 12:33N 37°60' W 009°27'7 5.2
2014-Sep-28 11:18N 37°54' W 009°30'4 4.8
2014-Sep-28 10:33N 37°50' W 009°28'4 4.4
2014-Sep-28 09:33N 37°46' W 009°28'4 3.6
2014-Sep-28 08:33N 37°43' W 009°25'4 4.5
2014-Sep-28 07:33N 37°45' W 009°19'3 3.1
2014-Sep-28 06:33N 37°48' W 009°19'3 2.6
2014-Sep-28 05:33N 37°51' W 009°18'1 0.2
2014-Sep-27 23:33N 37°50' W 009°17'1 0.6
2014-Sep-27 22:33N 37°50' W 009°16'7 6.9
2014-Sep-27 21:33N 37°44' W 009°20'6 6.1
2014-Sep-27 20:31N 37°43' W 009°28'8 7.9
2014-Sep-27 19:33N 37°51' W 009°27'8 7.7
2014-Sep-27 18:32N 37°59' W 009°27'7 7.3
2014-Sep-27 17:33N 38°06' W 009°25'  
Track history (hours):
 
Tides and Currents Weather Stations Pressure Air Temp Water Temp Dewpoint Dewpoint Depression Visibility Wind Speed Wind Dir Waves Ship Positions

Garcia Miguel

Last reported at 2014-Oct-01 18:17 UTC. Time now 2014-Oct-24 12:07 UTC.
Position N 37°49' W 010°06'.
Warning: this ship's position is 22 days out of date.

Length 20 m.

Type: Fishing. MMSI: 263500286.

Date/timePositionNaut miles runAvg speedWind from/ knotsBaromVisibWave heightAir tempDewpointWater temp
2014-Oct-01 18:17N 37°49' W 010°06'5 7.2
2014-Oct-01 17:33N 37°49' W 009°59'7 7.4
2014-Oct-01 16:33N 37°48' W 009°50'7 7.3
2014-Oct-01 15:33N 37°47' W 009°41'7 6.8
2014-Oct-01 14:33N 37°46' W 009°32'6 5.7
2014-Oct-01 13:33N 37°40' W 009°30'5 5.3
2014-Oct-01 12:33N 37°37' W 009°25'5 5.3
2014-Oct-01 11:33N 37°34' W 009°20'4 4.5
2014-Oct-01 10:33N 37°29' W 009°19'5 4.5
2014-Oct-01 09:26N 37°24' W 009°18'4 4.6
2014-Oct-01 08:33N 37°20' W 009°19'5 5.1
2014-Oct-01 07:33N 37°16' W 009°22'5 4.8
2014-Oct-01 06:33N 37°11' W 009°24'4 3.7
2014-Oct-01 05:33N 37°09' W 009°20'3 2.6
2014-Oct-01 04:33N 37°08' W 009°17'1 0.8
2014-Oct-01 03:33N 37°09' W 009°16'1 0.9
2014-Oct-01 02:33N 37°09' W 009°16'1 1.0
2014-Oct-01 01:33N 37°10' W 009°15'1 1.0
2014-Oct-01 00:32N 37°11' W 009°15'5 1.6
2014-Sep-30 21:33N 37°16' W 009°17'8 7.6
2014-Sep-30 20:32N 37°23' W 009°16'7 7.3
2014-Sep-30 19:33N 37°31' W 009°17'6 6.4
2014-Sep-30 18:33N 37°37' W 009°20'7 7.4
2014-Sep-30 17:33N 37°38' W 009°29'7 6.8
2014-Sep-30 16:33N 37°45' W 009°31'8 7.3
2014-Sep-30 15:25N 37°53' W 009°34'4 5.0
2014-Sep-30 14:33N 37°56' W 009°29'6 5.6
2014-Sep-30 13:32N 37°50' W 009°30'4 4.4
2014-Sep-30 12:33N 37°46' W 009°29'7 6.2
2014-Sep-30 11:30N 37°39' W 009°27'4 3.6
2014-Sep-30 10:30N 37°41' W 009°32'5 4.5
2014-Sep-30 09:18N 37°46' W 009°30'4 5.0
2014-Sep-30 08:33N 37°45' W 009°26'5 5.2
2014-Sep-30 07:33N 37°40' W 009°23'11 3.0
2014-Sep-30 04:04N 37°32' W 009°15'1 1.1
2014-Sep-30 03:27N 37°32' W 009°15'1 1.2
2014-Sep-30 02:23N 37°34' W 009°15'1 1.3
2014-Sep-30 01:33N 37°35' W 009°15'1 1.1
2014-Sep-30 00:33N 37°36' W 009°15'2 1.2
2014-Sep-29 23:17N 37°34' W 009°16'4 5.2
2014-Sep-29 22:30N 37°37' W 009°20'7 7.6
2014-Sep-29 21:33N 37°44' W 009°22'7 6.8
2014-Sep-29 20:32N 37°46' W 009°30'6 6.1
2014-Sep-29 19:31N 37°40' W 009°30'3 3.1
2014-Sep-29 18:33N 37°41' W 009°27'7 7.5
2014-Sep-29 17:33N 37°49' W 009°27'7 7.1
2014-Sep-29 16:33N 37°56' W 009°27'7 6.9
2014-Sep-29 15:33N 38°02' W 009°24'7 7.0
2014-Sep-29 14:33N 38°06' W 009°16'6 6.2
2014-Sep-29 13:33N 38°06' W 009°24'5 0.3
2014-Sep-28 17:20N 38°11' W 009°21'2 2.2
2014-Sep-28 16:33N 38°11' W 009°19'2 2.3
2014-Sep-28 15:32N 38°11' W 009°22'5 4.6
2014-Sep-28 14:33N 38°07' W 009°20'5 4.6
2014-Sep-28 13:33N 38°03' W 009°22'5 4.8
2014-Sep-28 12:33N 37°60' W 009°27'7 5.2
2014-Sep-28 11:18N 37°54' W 009°30'4 4.8
2014-Sep-28 10:33N 37°50' W 009°28'4 4.4
2014-Sep-28 09:33N 37°46' W 009°28'4 3.6
2014-Sep-28 08:33N 37°43' W 009°25'4 4.5
2014-Sep-28 07:33N 37°45' W 009°19'3 3.1
2014-Sep-28 06:33N 37°48' W 009°19'3 2.6
2014-Sep-28 05:33N 37°51' W 009°18'1 0.2
2014-Sep-27 23:33N 37°50' W 009°17'1 0.6
2014-Sep-27 22:33N 37°50' W 009°16'7 6.9
2014-Sep-27 21:33N 37°44' W 009°20'6 6.1
2014-Sep-27 20:31N 37°43' W 009°28'8 7.9
2014-Sep-27 19:33N 37°51' W 009°27'8 7.7
2014-Sep-27 18:32N 37°59' W 009°27'7 7.3
2014-Sep-27 17:33N 38°06' W 009°25'  

Dump ship's entire track history